Time;durP1;ratioP1;P1;durP2;ratioP2;P2;SDS_P1;SDS_P2;PMS_P1;PMS_P2;Temp;Humidity;BMP_temperature;BMP_pressure;BME280_temperature;BME280_humidity;BME280_pressure;Samples;Min_cycle;Max_cycle;Signal;HPM_P1;HPM_P2
2024/03/13 00:00:13;;;;;;;1.60;1.40;;;7.90;99.90;;;;;;5058933;28;20413;-82
2024/03/13 00:02:41;;;;;;;2.20;1.63;;;7.80;99.90;;;;;;5039702;28;20386;-85
2024/03/13 00:05:09;;;;;;;1.40;1.30;;;7.90;99.90;;;;;;5058249;28;20381;-84
2024/03/13 00:07:38;;;;;;;1.77;1.58;;;7.90;99.90;;;;;;5040153;28;20385;-84
2024/03/13 00:10:05;;;;;;;1.60;1.20;;;8.00;99.90;;;;;;5055153;28;20384;-82
2024/03/13 00:12:31;;;;;;;1.80;1.45;;;8.00;99.90;;;;;;5076933;28;20863;-83
2024/03/13 00:14:57;;;;;;;1.90;1.35;;;8.10;99.90;;;;;;5058538;28;20925;-84
2024/03/13 00:17:23;;;;;;;1.40;1.30;;;8.10;99.90;;;;;;5060631;28;20385;-83
2024/03/13 00:19:50;;;;;;;1.52;1.42;;;8.10;99.90;;;;;;5074220;28;20386;-81
2024/03/13 00:22:19;;;;;;;1.10;1.00;;;8.10;99.90;;;;;;5078781;28;20369;-82
2024/03/13 00:24:46;;;;;;;2.27;1.17;;;8.10;99.90;;;;;;5078618;28;20377;-81
2024/03/13 00:27:12;;;;;;;1.50;1.37;;;8.10;99.90;;;;;;5073008;28;20408;-83
2024/03/13 00:29:38;;;;;;;1.63;1.20;;;8.10;99.90;;;;;;5044646;28;20581;-82
2024/03/13 00:32:07;;;;;;;1.30;1.20;;;8.00;99.90;;;;;;5055384;28;20405;-82
2024/03/13 00:34:33;;;;;;;1.67;1.27;;;8.10;99.90;;;;;;5057855;28;20396;-82
2024/03/13 00:36:58;;;;;;;0.93;0.90;;;8.10;99.90;;;;;;5056888;28;20381;-81
2024/03/13 00:39:24;;;;;;;1.30;1.10;;;8.10;99.90;;;;;;5051623;28;20488;-82
2024/03/13 00:41:50;;;;;;;1.10;1.00;;;8.20;99.90;;;;;;5044842;28;20757;-83
2024/03/13 00:44:15;;;;;;;1.10;1.00;;;8.20;99.90;;;;;;5041644;28;20395;-84
2024/03/13 00:46:41;;;;;;;4.50;1.40;;;8.10;99.90;;;;;;5060845;28;20873;-84
2024/03/13 00:49:10;;;;;;;1.57;1.10;;;8.10;99.90;;;;;;5043283;28;20457;-84
2024/03/13 00:51:35;;;;;;;1.50;1.40;;;8.10;99.90;;;;;;5060400;28;20908;-84
2024/03/13 00:54:05;;;;;;;1.50;1.20;;;8.10;99.90;;;;;;5042493;28;20397;-83
2024/03/13 00:56:33;;;;;;;1.73;1.20;;;8.20;99.90;;;;;;5041217;28;20401;-84
2024/03/13 00:59:00;;;;;;;1.40;1.30;;;8.20;99.90;;;;;;5059048;28;20749;-84
2024/03/13 01:01:26;;;;;;;1.40;1.23;;;8.20;99.90;;;;;;5039854;28;20924;-82
2024/03/13 01:03:57;;;;;;;1.50;1.20;;;8.30;99.90;;;;;;5039379;28;20397;-83
2024/03/13 01:06:28;;;;;;;1.50;1.40;;;8.30;99.90;;;;;;5039437;28;20401;-84
2024/03/13 01:08:57;;;;;;;1.50;1.40;;;8.20;99.90;;;;;;5038965;28;20469;-82
2024/03/13 01:11:24;;;;;;;3.33;1.15;;;8.30;99.90;;;;;;5056403;28;20404;-83
2024/03/13 01:13:50;;;;;;;1.40;1.23;;;8.20;99.90;;;;;;5039720;28;20381;-83
2024/03/13 01:16:16;;;;;;;1.27;1.17;;;8.20;99.90;;;;;;5058691;28;20391;-83
2024/03/13 01:18:42;;;;;;;2.95;1.30;;;8.30;99.90;;;;;;5076168;28;20403;-83
2024/03/13 01:21:08;;;;;;;1.25;0.95;;;8.40;99.90;;;;;;5046847;28;20397;-83
2024/03/13 01:23:33;;;;;;;1.20;1.00;;;8.30;99.90;;;;;;5055553;28;20415;-82
2024/03/13 01:26:04;;;;;;;1.40;1.30;;;8.30;99.90;;;;;;5055169;28;20396;-83
2024/03/13 01:28:30;;;;;;;1.30;1.20;;;8.30;99.90;;;;;;5076502;28;20384;-83
2024/03/13 01:30:55;;;;;;;1.03;0.90;;;8.30;99.90;;;;;;5075931;28;20457;-83
2024/03/13 01:33:21;;;;;;;1.50;1.40;;;8.30;99.90;;;;;;5057594;28;20379;-82
2024/03/13 01:35:47;;;;;;;1.17;1.08;;;8.20;99.90;;;;;;5057245;28;20407;-82
2024/03/13 01:38:13;;;;;;;1.20;1.10;;;8.40;99.90;;;;;;5038433;28;20896;-83
2024/03/13 02:03:27;;;;;;;1.40;1.25;;;8.40;99.90;;;;;;5034550;28;20412;-79
2024/03/13 02:05:53;;;;;;;1.50;1.10;;;8.40;99.90;;;;;;5042204;28;20425;-83
2024/03/13 02:08:19;;;;;;;1.60;1.02;;;8.50;99.90;;;;;;5058718;28;20392;-84
2024/03/13 02:10:46;;;;;;;2.20;1.38;;;8.50;99.90;;;;;;5058344;28;20416;-84
2024/03/13 02:13:13;;;;;;;2.00;1.40;;;8.50;99.90;;;;;;5057409;28;20390;-83
2024/03/13 02:15:41;;;;;;;1.95;1.27;;;8.50;99.90;;;;;;5054188;28;20883;-83
2024/03/13 02:18:16;;;;;;;1.83;1.40;;;8.50;99.90;;;;;;5076318;28;20380;-84
2024/03/13 02:20:43;;;;;;;2.80;1.40;;;8.50;99.90;;;;;;5078932;28;20394;-84
2024/03/13 02:23:09;;;;;;;2.00;1.25;;;8.50;99.90;;;;;;5057790;28;20392;-84
2024/03/13 02:25:35;;;;;;;1.73;1.40;;;8.40;99.90;;;;;;5056174;28;20408;-84
2024/03/13 02:28:01;;;;;;;1.75;1.48;;;8.50;99.90;;;;;;5058732;28;20395;-84
2024/03/13 02:30:27;;;;;;;2.10;1.20;;;8.50;99.90;;;;;;5075173;28;20557;-82
2024/03/13 02:32:54;;;;;;;1.50;1.40;;;8.40;99.90;;;;;;5058588;28;20391;-82
2024/03/13 02:35:20;;;;;;;1.50;1.40;;;8.50;99.90;;;;;;5057243;28;20426;-83
2024/03/13 02:37:46;;;;;;;2.50;1.35;;;8.40;99.90;;;;;;5057173;28;20407;-84
2024/03/13 02:40:16;;;;;;;1.67;1.30;;;8.40;99.90;;;;;;5040119;28;20392;-84
2024/03/13 02:42:44;;;;;;;1.17;1.00;;;8.30;99.90;;;;;;5054834;28;20436;-82
2024/03/13 02:45:12;;;;;;;2.10;1.50;;;8.40;99.90;;;;;;5039512;28;20382;-85
2024/03/13 02:47:38;;;;;;;1.35;1.25;;;8.40;99.90;;;;;;5039781;28;20396;-83
2024/03/13 02:50:05;;;;;;;1.60;1.50;;;8.40;99.90;;;;;;5039023;28;20394;-85
2024/03/13 02:52:31;;;;;;;1.58;1.23;;;8.40;99.90;;;;;;5043287;28;20938;-85
2024/03/13 02:54:56;;;;;;;1.58;1.20;;;8.20;99.90;;;;;;5038089;28;20390;-84
2024/03/13 02:57:25;;;;;;;1.95;1.52;;;8.40;99.90;;;;;;5053758;28;20389;-83
2024/03/13 02:59:50;;;;;;;1.25;1.15;;;8.40;99.90;;;;;;5057207;28;20377;-84
2024/03/13 03:02:16;;;;;;;1.30;1.20;;;8.30;99.90;;;;;;5057598;28;20462;-85
2024/03/13 03:04:42;;;;;;;1.73;1.47;;;8.40;99.90;;;;;;5038804;28;20886;-85
2024/03/13 03:07:07;;;;;;;1.20;1.10;;;8.30;99.90;;;;;;5057704;28;20404;-84
2024/03/13 03:09:33;;;;;;;1.20;1.10;;;8.30;99.90;;;;;;5057836;28;20484;-84
2024/03/13 03:11:58;;;;;;;1.20;1.10;;;8.30;99.90;;;;;;5039950;28;20397;-84
2024/03/13 03:14:24;;;;;;;1.10;1.10;;;8.30;99.90;;;;;;5059108;28;20532;-84
2024/03/13 03:16:50;;;;;;;3.40;1.35;;;8.40;99.90;;;;;;5084050;28;20756;-84
2024/03/13 03:19:23;;;;;;;1.30;1.17;;;8.30;99.90;;;;;;5082154;28;20384;-83
2024/03/13 03:21:48;;;;;;;1.20;0.80;;;8.30;99.90;;;;;;5076345;28;20415;-84
2024/03/13 03:24:14;;;;;;;0.93;0.90;;;8.30;99.90;;;;;;5060869;28;20818;-83
2024/03/13 03:26:39;;;;;;;1.70;1.20;;;8.40;99.90;;;;;;5071007;28;20399;-82
2024/03/13 03:29:05;;;;;;;1.40;1.20;;;8.50;99.90;;;;;;5062776;28;20400;-81
2024/03/13 03:31:30;;;;;;;1.40;1.00;;;8.40;99.90;;;;;;5079760;28;20404;-82
2024/03/13 03:33:56;;;;;;;1.20;1.10;;;8.40;99.90;;;;;;5051748;28;20385;-85
2024/03/13 03:36:21;;;;;;;3.60;1.20;;;8.40;99.90;;;;;;5040864;28;20940;-84
2024/03/13 03:38:47;;;;;;;1.10;0.80;;;8.50;99.90;;;;;;5042366;28;20405;-83
2024/03/13 03:41:13;;;;;;;1.40;0.80;;;8.50;99.90;;;;;;5059621;28;20449;-84
2024/03/13 03:43:39;;;;;;;0.85;0.82;;;8.50;99.90;;;;;;5061005;28;20389;-85
2024/03/13 03:46:04;;;;;;;1.00;0.90;;;8.50;99.90;;;;;;5060485;28;20409;-85
2024/03/13 03:48:30;;;;;;;1.10;0.90;;;8.50;99.90;;;;;;5042732;28;20389;-84
2024/03/13 03:50:55;;;;;;;0.73;0.60;;;8.50;99.90;;;;;;5042300;28;20409;-84
2024/03/13 03:53:21;;;;;;;2.10;0.80;;;8.50;99.90;;;;;;5041680;28;20429;-83
2024/03/13 03:55:46;;;;;;;0.90;0.90;;;8.50;99.90;;;;;;5070525;28;20391;-84
2024/03/13 03:58:12;;;;;;;1.40;1.00;;;8.50;99.90;;;;;;5062408;28;20383;-85
2024/03/13 04:00:37;;;;;;;2.25;0.85;;;8.50;99.90;;;;;;5060687;28;20387;-86
2024/03/13 04:03:04;;;;;;;0.85;0.85;;;8.60;99.90;;;;;;5059284;28;20391;-86
2024/03/13 04:05:30;;;;;;;0.73;0.60;;;8.50;99.90;;;;;;5084738;28;20895;-84
2024/03/13 04:07:56;;;;;;;0.85;0.80;;;8.50;99.90;;;;;;5084658;28;20380;-86
2024/03/13 04:10:21;;;;;;;0.82;0.80;;;8.50;99.90;;;;;;5066210;28;20449;-87
2024/03/13 04:12:47;;;;;;;0.70;0.70;;;8.30;99.90;;;;;;5066989;28;20763;-87
2024/03/13 04:15:12;;;;;;;0.70;0.70;;;8.50;99.90;;;;;;5085310;28;20394;-87
2024/03/13 04:17:39;;;;;;;1.03;0.80;;;8.50;99.90;;;;;;5067048;28;20786;-86
2024/03/13 04:20:12;;;;;;;0.70;0.70;;;11.10;99.90;;;;;;5067938;28;20906;-87
2024/03/13 04:22:38;;;;;;;0.90;0.80;;;8.50;99.90;;;;;;5069649;28;20387;-87
2024/03/13 04:25:04;;;;;;;0.90;0.90;;;8.60;99.90;;;;;;5084762;28;20437;-86
2024/03/13 04:27:29;;;;;;;0.80;0.80;;;8.60;99.90;;;;;;5066153;28;20392;-87
2024/03/13 04:29:55;;;;;;;0.90;0.90;;;8.60;99.90;;;;;;5068299;28;20387;-87
2024/03/13 04:32:21;;;;;;;0.93;0.90;;;8.70;99.90;;;;;;5065724;28;20411;-87
2024/03/13 04:34:46;;;;;;;1.25;0.80;;;8.60;99.90;;;;;;5065747;28;20395;-86
2024/03/13 04:37:15;;;;;;;0.90;0.90;;;8.60;99.90;;;;;;5084155;28;20404;-86
2024/03/13 04:39:41;;;;;;;1.20;1.10;;;8.70;99.90;;;;;;5084387;28;20391;-86
2024/03/13 04:42:07;;;;;;;1.30;1.00;;;8.60;99.90;;;;;;5064107;28;20408;-87
2024/03/13 04:44:33;;;;;;;1.13;1.02;;;8.60;99.90;;;;;;5063823;28;20380;-88
2024/03/13 04:46:58;;;;;;;2.20;1.10;;;8.60;99.90;;;;;;5069834;28;20451;-86
2024/03/13 04:49:24;;;;;;;1.50;1.10;;;8.70;99.90;;;;;;5065155;28;20402;-85
2024/03/13 04:51:49;;;;;;;1.30;1.08;;;8.70;99.90;;;;;;5061294;28;20435;-86
2024/03/13 04:54:16;;;;;;;1.10;1.00;;;8.70;99.90;;;;;;5062036;28;20445;-86
2024/03/13 04:56:42;;;;;;;0.90;0.90;;;8.70;99.90;;;;;;5061671;28;20906;-85
2024/03/13 04:59:07;;;;;;;0.90;0.90;;;8.70;99.90;;;;;;5059348;28;20471;-87
2024/03/13 05:01:33;;;;;;;1.50;1.20;;;8.70;99.90;;;;;;5058680;28;20401;-86
2024/03/13 05:03:59;;;;;;;0.80;0.80;;;9.80;99.90;;;;;;5082221;28;20384;-86
2024/03/13 05:06:26;;;;;;;1.80;1.00;;;8.70;99.90;;;;;;5091590;28;20388;-86
2024/03/13 05:08:51;;;;;;;0.90;0.82;;;8.70;99.90;;;;;;5063896;28;20416;-86
2024/03/13 05:11:17;;;;;;;1.20;1.10;;;8.70;99.90;;;;;;5083557;28;20404;-87
2024/03/13 05:13:46;;;;;;;1.00;0.90;;;8.80;99.90;;;;;;5066886;28;20415;-86
2024/03/13 05:16:13;;;;;;;1.90;1.00;;;8.80;99.90;;;;;;5063862;28;20388;-87
2024/03/13 05:18:38;;;;;;;0.73;0.73;;;8.80;99.90;;;;;;5066597;28;20395;-87
2024/03/13 05:21:04;;;;;;;1.10;0.80;;;8.80;99.90;;;;;;5088703;28;20372;-86
2024/03/13 05:23:29;;;;;;;1.20;0.80;;;8.70;99.90;;;;;;5068658;28;20430;-86
2024/03/13 05:25:59;;;;;;;1.30;0.90;;;8.80;99.90;;;;;;5067921;28;20399;-87
2024/03/13 05:28:25;;;;;;;1.10;1.00;;;8.70;99.90;;;;;;5080980;28;20384;-86
2024/03/13 05:30:51;;;;;;;1.88;0.70;;;8.80;99.90;;;;;;5080194;28;20415;-85
2024/03/13 05:33:16;;;;;;;0.90;0.80;;;8.90;99.90;;;;;;5062278;28;20913;-86
2024/03/13 05:35:42;;;;;;;1.07;0.97;;;8.90;99.90;;;;;;5079436;28;20402;-86
2024/03/13 05:38:08;;;;;;;0.80;0.80;;;8.90;99.90;;;;;;5081306;28;20419;-86
2024/03/13 05:40:34;;;;;;;0.90;0.90;;;8.80;99.90;;;;;;5079663;28;20380;-85
2024/03/13 05:42:59;;;;;;;1.00;0.90;;;8.90;99.90;;;;;;5061785;28;20418;-84
2024/03/13 05:45:25;;;;;;;1.30;1.00;;;8.90;99.90;;;;;;5061290;28;20386;-86
2024/03/13 05:47:51;;;;;;;0.80;0.80;;;8.90;99.90;;;;;;5060798;28;20473;-85
2024/03/13 05:50:17;;;;;;;1.00;0.70;;;8.90;99.90;;;;;;5075360;28;20391;-86
2024/03/13 05:52:45;;;;;;;0.82;0.80;;;8.80;99.90;;;;;;5057942;28;20406;-86
2024/03/13 05:55:12;;;;;;;1.10;1.00;;;8.80;99.90;;;;;;5077616;28;20384;-85
2024/03/13 05:57:38;;;;;;;0.90;0.90;;;8.90;99.90;;;;;;5060108;28;20460;-85
2024/03/13 06:00:09;;;;;;;0.88;0.88;;;8.80;99.90;;;;;;5077305;28;20408;-85
2024/03/13 06:02:35;;;;;;;1.10;1.00;;;8.80;99.90;;;;;;5075971;28;20436;-85
2024/03/13 06:05:09;;;;;;;1.10;1.00;;;8.80;99.90;;;;;;5058281;28;20422;-85
2024/03/13 06:07:38;;;;;;;1.77;1.67;;;8.80;99.90;;;;;;5056615;28;20397;-85
2024/03/13 06:10:05;;;;;;;3.60;3.30;;;8.90;99.90;;;;;;5040837;28;20385;-84
2024/03/13 06:12:31;;;;;;;3.72;3.42;;;8.90;99.90;;;;;;5063319;28;20420;-86
2024/03/13 06:14:56;;;;;;;2.42;2.03;;;8.80;99.90;;;;;;5036798;28;20393;-86
2024/03/13 06:17:22;;;;;;;2.00;1.70;;;8.90;99.90;;;;;;5054585;28;20470;-87
2024/03/13 06:19:48;;;;;;;3.42;2.20;;;8.90;99.90;;;;;;5035534;28;20374;-86
2024/03/13 06:22:14;;;;;;;2.40;1.60;;;8.80;99.90;;;;;;5036320;28;20780;-86
2024/03/13 06:24:40;;;;;;;1.30;1.20;;;8.90;99.90;;;;;;5042263;28;20396;-85
2024/03/13 06:27:09;;;;;;;1.30;1.20;;;8.90;99.90;;;;;;5057535;28;21139;-85
2024/03/13 06:32:19;;;;;;;1.08;0.93;;;8.90;99.90;;;;;;5075763;28;20443;-85
2024/03/13 06:34:45;;;;;;;1.80;1.60;;;9.00;99.90;;;;;;5037366;28;20393;-86
2024/03/13 06:37:11;;;;;;;1.70;1.10;;;8.90;99.90;;;;;;5054996;28;20389;-84
2024/03/13 06:39:36;;;;;;;1.33;1.23;;;9.00;99.90;;;;;;5053838;28;20389;-85
2024/03/13 06:42:02;;;;;;;1.20;1.10;;;9.10;99.90;;;;;;5034898;28;20480;-86
2024/03/13 06:44:27;;;;;;;2.07;1.50;;;9.00;99.90;;;;;;5034956;28;20396;-85
2024/03/13 06:46:53;;;;;;;1.70;1.40;;;11.20;99.90;;;;;;5070404;22;20489;-80
2024/03/13 06:49:19;;;;;;;1.70;1.13;;;8.90;99.90;;;;;;5061534;28;20392;-80
2024/03/13 06:51:45;;;;;;;0.73;0.73;;;8.90;99.90;;;;;;5059441;28;20491;-82
2024/03/13 06:54:10;;;;;;;0.90;0.90;;;9.00;99.90;;;;;;5052293;28;20435;-82
2024/03/13 06:56:36;;;;;;;1.10;1.00;;;9.00;99.90;;;;;;5047103;28;20391;-82
2024/03/13 06:59:02;;;;;;;1.10;0.80;;;9.00;99.90;;;;;;5053137;28;20385;-81
2024/03/13 07:01:29;;;;;;;1.40;1.10;;;8.90;99.90;;;;;;5054061;28;20899;-83
2024/03/13 07:03:57;;;;;;;2.00;1.10;;;9.00;99.90;;;;;;5055996;28;20477;-81
2024/03/13 07:06:23;;;;;;;1.90;0.90;;;9.00;99.90;;;;;;5055180;28;20424;-82
2024/03/13 07:08:49;;;;;;;0.70;0.70;;;9.00;99.90;;;;;;5055365;28;20882;-80
2024/03/13 07:11:14;;;;;;;2.40;0.80;;;9.00;99.90;;;;;;5055448;28;20440;-79
2024/03/13 07:13:40;;;;;;;0.90;0.90;;;9.00;99.90;;;;;;5051753;28;20770;-79
2024/03/13 07:16:05;;;;;;;1.20;1.10;;;9.10;99.90;;;;;;5049519;28;20377;-82
2024/03/13 07:18:31;;;;;;;1.10;1.00;;;9.10;99.90;;;;;;5055910;28;20377;-82
2024/03/13 07:20:58;;;;;;;1.67;1.20;;;9.10;99.90;;;;;;5074305;28;20379;-81
2024/03/13 07:23:23;;;;;;;1.60;1.10;;;9.10;99.90;;;;;;5057381;28;20437;-81
2024/03/13 07:25:50;;;;;;;1.20;0.90;;;9.10;99.90;;;;;;5052171;28;20397;-81
2024/03/13 07:28:17;;;;;;;1.27;1.17;;;9.20;99.90;;;;;;5055661;28;20389;-81
2024/03/13 07:30:42;;;;;;;1.33;1.00;;;9.20;99.90;;;;;;5054841;28;20401;-82
2024/03/13 07:33:09;;;;;;;2.17;1.10;;;9.20;99.90;;;;;;5051818;28;20423;-81
2024/03/13 07:35:35;;;;;;;2.05;1.55;;;9.20;99.90;;;;;;5053810;28;20381;-81
2024/03/13 07:38:01;;;;;;;1.50;1.40;;;9.20;99.90;;;;;;5053838;28;20767;-81
2024/03/13 07:40:31;;;;;;;1.20;0.93;;;9.20;99.90;;;;;;5037677;28;20466;-82
2024/03/13 07:42:57;;;;;;;1.45;1.27;;;9.20;99.90;;;;;;5032574;28;20438;-82
2024/03/13 07:45:25;;;;;;;1.50;1.00;;;9.20;99.90;;;;;;5033974;28;20387;-82
2024/03/13 07:47:51;;;;;;;1.60;0.90;;;9.20;99.90;;;;;;5035543;28;20426;-81
2024/03/13 07:50:17;;;;;;;1.40;1.10;;;9.40;99.90;;;;;;5038990;28;20394;-81
2024/03/13 07:52:42;;;;;;;1.50;0.80;;;9.40;99.90;;;;;;5039285;28;20963;-82
2024/03/13 07:55:09;;;;;;;1.38;0.90;;;9.50;99.90;;;;;;5034257;28;20398;-81
2024/03/13 07:57:35;;;;;;;0.90;0.60;;;9.50;99.90;;;;;;5033897;28;20878;-81
2024/03/13 08:00:00;;;;;;;1.10;1.00;;;9.50;99.90;;;;;;5034483;28;20515;-81
2024/03/13 08:02:27;;;;;;;1.10;0.90;;;9.60;99.90;;;;;;5037356;28;20395;-81
2024/03/13 08:04:53;;;;;;;1.80;0.90;;;9.60;99.90;;;;;;5042156;28;20387;-81
2024/03/13 08:07:22;;;;;;;2.10;0.93;;;9.60;99.90;;;;;;5039462;28;20433;-81
2024/03/13 08:09:48;;;;;;;1.90;1.10;;;9.60;99.90;;;;;;5039734;28;20395;-79
2024/03/13 08:12:14;;;;;;;1.00;0.90;;;9.50;99.90;;;;;;5047643;28;20476;-80
2024/03/13 08:14:39;;;;;;;1.00;0.70;;;9.60;99.90;;;;;;5048767;28;20903;-80
2024/03/13 08:17:06;;;;;;;1.10;0.70;;;9.60;99.90;;;;;;5047638;28;20403;-81
2024/03/13 08:19:32;;;;;;;0.63;0.45;;;9.60;99.90;;;;;;5041585;28;20383;-80
2024/03/13 08:21:57;;;;;;;0.60;0.50;;;9.60;99.90;;;;;;5036597;28;20954;-81
2024/03/13 08:24:26;;;;;;;1.10;0.57;;;9.60;99.90;;;;;;5041874;28;20518;-81
2024/03/13 08:26:52;;;;;;;1.42;1.00;;;9.70;99.90;;;;;;5057945;28;20377;-81
2024/03/13 08:29:17;;;;;;;0.60;0.50;;;9.70;99.90;;;;;;5057098;28;20746;-81
2024/03/13 08:31:47;;;;;;;1.00;0.80;;;9.70;99.90;;;;;;5056318;28;20398;-81
2024/03/13 08:34:16;;;;;;;0.82;0.70;;;9.60;99.90;;;;;;5060727;28;20385;-81
2024/03/13 08:36:42;;;;;;;0.90;0.60;;;9.70;99.90;;;;;;5057199;28;20400;-81
2024/03/13 08:39:09;;;;;;;0.70;0.70;;;9.70;99.90;;;;;;5058176;28;20537;-81
2024/03/13 08:41:35;;;;;;;1.45;0.80;;;9.70;99.90;;;;;;5057365;28;20427;-80
2024/03/13 08:44:03;;;;;;;1.63;1.05;;;9.70;99.90;;;;;;5061077;28;20862;-80
2024/03/13 08:46:29;;;;;;;0.87;0.87;;;9.70;99.90;;;;;;5053797;28;20462;-79
2024/03/13 08:48:58;;;;;;;1.30;0.90;;;9.80;99.90;;;;;;5055398;28;20889;-80
2024/03/13 08:51:25;;;;;;;1.40;0.70;;;9.70;99.90;;;;;;5056429;28;20397;-79
2024/03/13 08:53:51;;;;;;;0.88;0.80;;;9.70;99.90;;;;;;5050861;28;20440;-80
2024/03/13 08:56:17;;;;;;;0.65;0.60;;;9.90;99.90;;;;;;5044577;28;21102;-78
2024/03/13 08:58:44;;;;;;;1.10;1.00;;;9.90;99.90;;;;;;5035265;28;20513;-81
2024/03/13 09:01:10;;;;;;;1.00;0.90;;;9.90;99.90;;;;;;5034028;28;20394;-80
2024/03/13 09:03:36;;;;;;;1.40;1.00;;;9.90;99.90;;;;;;5034829;28;20422;-81
2024/03/13 09:06:04;;;;;;;1.10;0.80;;;9.90;99.90;;;;;;5041327;28;20390;-81
2024/03/13 09:08:29;;;;;;;1.20;1.00;;;10.00;99.90;;;;;;5049584;28;20393;-80
2024/03/13 09:10:57;;;;;;;2.83;0.95;;;10.00;99.90;;;;;;5046024;28;20409;-81
2024/03/13 09:13:23;;;;;;;1.30;0.98;;;10.10;99.90;;;;;;5042713;28;20407;-80
2024/03/13 09:15:49;;;;;;;0.85;0.85;;;10.10;99.90;;;;;;5038781;28;20397;-78
2024/03/13 09:18:15;;;;;;;0.80;0.80;;;10.00;99.90;;;;;;5041646;28;20412;-79
2024/03/13 09:20:41;;;;;;;1.15;0.80;;;10.00;99.90;;;;;;5052053;28;20764;-80
2024/03/13 09:23:09;;;;;;;0.98;0.88;;;10.10;99.90;;;;;;5052232;28;20406;-80
2024/03/13 09:25:34;;;;;;;0.90;0.90;;;10.10;99.90;;;;;;5038529;28;20485;-80
2024/03/13 09:28:00;;;;;;;0.88;0.88;;;10.20;99.90;;;;;;5038753;28;20489;-79
2024/03/13 09:30:26;;;;;;;0.80;0.80;;;10.10;99.90;;;;;;5053613;28;20478;-80
2024/03/13 09:32:52;;;;;;;1.63;0.80;;;10.20;99.90;;;;;;5048154;28;20516;-80
2024/03/13 09:35:18;;;;;;;0.88;0.88;;;10.20;99.90;;;;;;5049430;28;20425;-80
2024/03/13 09:37:44;;;;;;;0.80;0.80;;;10.20;99.90;;;;;;5046675;28;20463;-81
2024/03/13 09:40:16;;;;;;;0.87;0.80;;;10.20;99.90;;;;;;5053716;28;20447;-78
2024/03/13 09:42:44;;;;;;;2.03;0.70;;;10.10;99.90;;;;;;5039784;28;20902;-80
2024/03/13 09:45:18;;;;;;;2.50;1.05;;;10.10;99.90;;;;;;5037076;28;20902;-80
2024/03/13 09:47:44;;;;;;;2.15;1.20;;;10.20;99.90;;;;;;5042337;28;20407;-81
2024/03/13 09:50:15;;;;;;;0.85;0.77;;;10.30;99.90;;;;;;5035862;28;20419;-81
2024/03/13 09:52:42;;;;;;;2.70;0.90;;;10.10;99.90;;;;;;5034722;28;20403;-82
2024/03/13 09:55:13;;;;;;;1.27;0.80;;;10.10;99.90;;;;;;5035853;28;21054;-81
2024/03/13 09:57:39;;;;;;;1.10;0.90;;;10.10;99.90;;;;;;5038361;28;20751;-81
2024/03/13 10:00:18;;;;;;;1.00;1.00;;;10.10;99.90;;;;;;5034554;28;20467;-82
2024/03/13 10:02:51;;;;;;;1.35;0.80;;;10.20;99.90;;;;;;5034480;28;20513;-80
2024/03/13 10:05:19;;;;;;;1.63;1.20;;;10.20;99.90;;;;;;5033780;28;20387;-81
2024/03/13 10:07:53;;;;;;;1.40;1.30;;;10.30;99.90;;;;;;5035313;28;20743;-80
2024/03/13 10:10:28;;;;;;;2.30;1.60;;;10.30;99.90;;;;;;5034752;28;20398;-81
2024/03/13 10:12:56;;;;;;;2.60;1.30;;;10.30;99.90;;;;;;5035954;28;20514;-82
2024/03/13 10:15:22;;;;;;;2.10;1.30;;;10.30;99.90;;;;;;5035539;28;20387;-81
2024/03/13 10:18:18;;;;;;;3.70;1.40;;;10.40;99.90;;;;;;5035550;28;20385;-81
2024/03/13 10:21:18;;;;;;;1.40;1.30;;;10.30;99.90;;;;;;5028350;28;20387;-81
2024/03/13 10:23:45;;;;;;;2.28;1.40;;;10.30;99.90;;;;;;5011711;28;20391;-81
2024/03/13 10:26:12;;;;;;;1.33;1.20;;;10.30;99.90;;;;;;5053983;28;20396;-80
2024/03/13 10:28:38;;;;;;;1.95;1.50;;;10.40;99.90;;;;;;5054696;28;20381;-80
2024/03/13 10:31:04;;;;;;;1.92;1.25;;;10.40;99.90;;;;;;5053478;28;20476;-81
2024/03/13 10:33:30;;;;;;;2.60;1.50;;;10.50;99.90;;;;;;5055478;28;20382;-81
2024/03/13 10:35:57;;;;;;;2.90;1.50;;;10.60;99.90;;;;;;5055708;28;20377;-80
2024/03/13 10:38:26;;;;;;;1.50;1.40;;;10.60;99.90;;;;;;5054385;28;20396;-79
2024/03/13 10:40:51;;;;;;;2.60;1.60;;;10.70;99.90;;;;;;5056403;28;20404;-84
2024/03/13 10:43:18;;;;;;;1.50;1.20;;;10.70;99.90;;;;;;5055779;28;20877;-80
2024/03/13 10:45:50;;;;;;;1.48;1.30;;;10.70;99.90;;;;;;5056683;28;20393;-81
2024/03/13 10:48:16;;;;;;;1.48;1.38;;;10.50;99.90;;;;;;5057831;28;20404;-80
2024/03/13 10:50:44;;;;;;;1.40;1.10;;;10.70;99.90;;;;;;5064105;28;20413;-79
2024/03/13 10:53:10;;;;;;;1.27;1.17;;;10.60;99.90;;;;;;5068439;28;20378;-79
2024/03/13 10:55:37;;;;;;;1.30;1.20;;;10.70;99.90;;;;;;5065996;28;21000;-78
2024/03/13 10:58:03;;;;;;;1.45;1.30;;;10.70;99.90;;;;;;5063697;28;20377;-78
2024/03/13 11:00:30;;;;;;;2.15;1.30;;;10.80;99.90;;;;;;5062528;28;20384;-78
2024/03/13 11:02:56;;;;;;;1.10;0.90;;;10.80;99.90;;;;;;5064885;28;20381;-79
2024/03/13 11:05:23;;;;;;;2.20;1.60;;;10.90;99.90;;;;;;5061848;28;20380;-79
2024/03/13 11:07:49;;;;;;;1.47;1.37;;;11.00;99.90;;;;;;5061164;28;20385;-81
2024/03/13 11:10:18;;;;;;;1.40;1.30;;;11.00;99.90;;;;;;5056812;28;20402;-78
2024/03/13 11:12:45;;;;;;;1.33;1.23;;;11.10;99.90;;;;;;5062994;28;20409;-79
2024/03/13 11:15:20;;;;;;;1.30;1.20;;;11.20;99.90;;;;;;5045483;28;22306;-80
2024/03/13 11:17:51;;;;;;;0.80;0.80;;;11.30;99.90;;;;;;5062059;28;20822;-78
2024/03/13 11:20:21;;;;;;;1.73;1.10;;;11.40;99.90;;;;;;5065447;28;20669;-78
2024/03/13 11:22:58;;;;;;;1.63;0.77;;;11.60;99.90;;;;;;5065936;28;20377;-78
2024/03/13 11:25:24;;;;;;;1.20;1.10;;;11.50;99.90;;;;;;5061240;28;20401;-79
2024/03/13 11:27:55;;;;;;;0.80;0.73;;;11.50;99.90;;;;;;5059289;28;20385;-80
2024/03/13 11:30:21;;;;;;;1.60;0.98;;;11.60;99.90;;;;;;5053513;28;20399;-80
2024/03/13 11:32:48;;;;;;;0.90;0.77;;;11.50;99.90;;;;;;5053985;28;20491;-81
2024/03/13 11:35:16;;;;;;;2.58;1.70;;;11.50;99.90;;;;;;5057974;28;20386;-80
2024/03/13 11:37:43;;;;;;;1.10;1.00;;;11.40;99.90;;;;;;5058504;28;20380;-81
2024/03/13 11:40:10;;;;;;;1.00;0.90;;;11.40;99.90;;;;;;5057536;28;20459;-81
2024/03/13 11:42:36;;;;;;;1.02;0.93;;;11.50;99.90;;;;;;5056214;28;20389;-81
2024/03/13 11:45:18;;;;;;;1.20;0.70;;;11.50;99.90;;;;;;5058050;28;20411;-80
2024/03/13 11:47:48;;;;;;;1.20;0.88;;;11.50;99.90;;;;;;5057131;28;20747;-80
2024/03/13 11:50:14;;;;;;;0.90;0.80;;;11.50;99.90;;;;;;5057274;28;20389;-80
2024/03/13 11:52:58;;;;;;;0.70;0.70;;;11.50;99.90;;;;;;5057224;28;20412;-78
2024/03/13 11:55:25;;;;;;;1.35;0.82;;;11.60;99.90;;;;;;5056903;28;20385;-79
2024/03/13 11:58:06;;;;;;;0.80;0.70;;;11.60;99.90;;;;;;5055911;28;20484;-80
2024/03/13 12:00:33;;;;;;;1.70;0.80;;;11.70;99.90;;;;;;5057417;28;20392;-77
2024/03/13 12:03:01;;;;;;;0.90;0.70;;;11.70;99.90;;;;;;5067609;28;20378;-78
2024/03/13 12:05:34;;;;;;;0.80;0.80;;;11.70;99.90;;;;;;5066808;28;20407;-78
2024/03/13 12:08:01;;;;;;;0.80;0.70;;;11.90;99.90;;;;;;5060481;28;20382;-79
2024/03/13 12:10:27;;;;;;;1.10;0.80;;;11.90;99.90;;;;;;5062387;28;20410;-78
2024/03/13 12:12:53;;;;;;;1.00;0.80;;;11.90;99.90;;;;;;5062825;28;20382;-79
2024/03/13 12:15:20;;;;;;;1.10;0.60;;;12.00;99.90;;;;;;5058903;28;20377;-79
2024/03/13 12:17:47;;;;;;;0.80;0.80;;;12.00;99.90;;;;;;5056869;28;20389;-79
2024/03/13 12:20:15;;;;;;;1.20;0.80;;;12.00;99.90;;;;;;5056450;28;20389;-79
2024/03/13 12:22:46;;;;;;;1.50;0.90;;;12.00;99.90;;;;;;5057121;28;20443;-79
2024/03/13 12:25:12;;;;;;;1.90;1.00;;;12.10;99.90;;;;;;5057044;28;20416;-79
2024/03/13 12:27:49;;;;;;;1.23;1.00;;;12.00;99.90;;;;;;5056347;28;20397;-78
2024/03/13 12:30:18;;;;;;;1.70;0.90;;;11.90;99.90;;;;;;5055008;28;20398;-78
2024/03/13 12:32:45;;;;;;;1.38;1.23;;;11.90;99.90;;;;;;5054813;28;20408;-77
2024/03/13 12:35:12;;;;;;;1.35;1.00;;;11.90;99.90;;;;;;5055846;28;20386;-79
2024/03/13 12:37:38;;;;;;;1.20;0.90;;;12.00;99.90;;;;;;5056331;28;20445;-78
2024/03/13 12:40:08;;;;;;;1.60;1.05;;;12.20;99.90;;;;;;5056145;28;20893;-79
2024/03/13 12:42:37;;;;;;;1.10;1.00;;;12.30;99.90;;;;;;5054607;28;20471;-78
2024/03/13 12:45:05;;;;;;;1.85;0.80;;;12.50;99.90;;;;;;5055372;28;20408;-78
2024/03/13 12:47:34;;;;;;;1.60;0.82;;;12.50;99.90;;;;;;5076046;22;20501;-84
2024/03/13 12:50:00;;;;;;;1.10;0.90;;;12.70;99.90;;;;;;5044418;28;20385;-84
2024/03/13 12:52:29;;;;;;;1.40;1.20;;;12.90;99.90;;;;;;5042826;28;20402;-84
2024/03/13 12:54:56;;;;;;;1.60;1.20;;;12.90;99.90;;;;;;5060754;28;20390;-84
2024/03/13 12:57:21;;;;;;;1.35;1.25;;;13.10;99.90;;;;;;5060770;28;20381;-85
2024/03/13 12:59:51;;;;;;;1.40;1.00;;;13.20;99.90;;;;;;5043527;28;20382;-85
2024/03/13 13:02:20;;;;;;;1.00;0.80;;;13.50;99.90;;;;;;5060947;28;20396;-85
2024/03/13 13:04:46;;;;;;;0.80;0.60;;;13.50;99.90;;;;;;5041799;28;20389;-84
2024/03/13 13:07:15;;;;;;;0.75;0.70;;;13.30;99.90;;;;;;5043103;28;20405;-85
2024/03/13 13:09:42;;;;;;;1.10;1.00;;;13.60;99.90;;;;;;5043154;28;20416;-84
2024/03/13 13:12:12;;;;;;;1.50;0.80;;;13.90;99.90;;;;;;5041984;28;20401;-85
2024/03/13 13:14:40;;;;;;;1.15;0.77;;;14.00;99.90;;;;;;5059302;28;20389;-84
2024/03/13 13:17:05;;;;;;;1.50;0.82;;;14.00;99.90;;;;;;5059461;28;20908;-84